Decoded Metar for LEBR (BARDENAS REALES in SPAIN) (IATA:N/A) | Meteo·Mobile Aviation Weather
aviador You're here:

LEBR Decoded Metar

BARDENAS REALES in SPAIN
Report Time2020-02-18 21:30:00
UTC Time2020-02-18 22:03:19
Flight Rules vfr VFR
Wind320° at 09 kt
Visibility9999 m
Phenomena:N/A
Clouds:N/A
Expected CloudBase > 2,000 ft AGL from Temp-Dew spread
CeilingNone
Temp06°C (ISA -7)
Dew Point01°C (71% RH)
AAT0.9°C
QNH1034 hPa
Density Alt-499 ft
Elevation968 ft
Report Wrong Elevation
Raw Report
METAR LEBR 182130Z AUTO 32009KT 9999 NSC 06/01 Q1034=

Extra information for LEBR:More info

Airport Information Weather charts Add Link Nearby Venues Social comments